sensor_id;sensor_type;location;lat;lon;timestamp;temperature;humidity
42227;DHT22;27892;52.378;13.122;2022-10-18T00:15:27;18.90;75.70
42227;DHT22;27892;52.378;13.122;2022-10-18T00:17:52;18.90;75.50
42227;DHT22;27892;52.378;13.122;2022-10-18T00:20:18;18.90;75.50
42227;DHT22;27892;52.378;13.122;2022-10-18T00:22:44;18.90;75.50
42227;DHT22;27892;52.378;13.122;2022-10-18T00:25:09;18.90;75.50
42227;DHT22;27892;52.378;13.122;2022-10-18T00:27:35;18.90;75.20
42227;DHT22;27892;52.378;13.122;2022-10-18T00:30:01;18.90;75.50
42227;DHT22;27892;52.378;13.122;2022-10-18T00:32:26;18.90;75.50
42227;DHT22;27892;52.378;13.122;2022-10-18T00:34:52;19.00;75.90
42227;DHT22;27892;52.378;13.122;2022-10-18T00:37:18;19.00;75.70
42227;DHT22;27892;52.378;13.122;2022-10-18T00:39:44;19.10;75.70
42227;DHT22;27892;52.378;13.122;2022-10-18T00:42:15;19.10;75.70
42227;DHT22;27892;52.378;13.122;2022-10-18T00:47:08;19.10;75.60
42227;DHT22;27892;52.378;13.122;2022-10-18T00:49:38;19.10;75.50
42227;DHT22;27892;52.378;13.122;2022-10-18T00:52:16;19.10;75.30
42227;DHT22;27892;52.378;13.122;2022-10-18T00:54:44;19.20;75.30
42227;DHT22;27892;52.378;13.122;2022-10-18T00:57:12;19.10;75.20
42227;DHT22;27892;52.378;13.122;2022-10-18T00:59:38;19.10;75.10
42227;DHT22;27892;52.378;13.122;2022-10-18T01:02:05;19.10;75.10
42227;DHT22;27892;52.378;13.122;2022-10-18T01:04:32;19.10;75.00
42227;DHT22;27892;52.378;13.122;2022-10-18T01:15:36;19.00;75.30
42227;DHT22;27892;52.378;13.122;2022-10-18T01:18:05;19.00;75.40
42227;DHT22;27892;52.378;13.122;2022-10-18T01:26:37;19.00;75.40
42227;DHT22;27892;52.378;13.122;2022-10-18T01:31:56;19.00;75.60
42227;DHT22;27892;52.378;13.122;2022-10-18T01:34:24;19.00;75.60
42227;DHT22;27892;52.378;13.122;2022-10-18T01:36:52;18.90;75.60
42227;DHT22;27892;52.378;13.122;2022-10-18T01:39:23;19.00;75.80
42227;DHT22;27892;52.378;13.122;2022-10-18T01:41:51;19.00;75.80
42227;DHT22;27892;52.378;13.122;2022-10-18T01:44:22;19.00;75.80
42227;DHT22;27892;52.378;13.122;2022-10-18T01:46:53;19.00;76.00
42227;DHT22;27892;52.378;13.122;2022-10-18T01:49:19;19.00;75.90
42227;DHT22;27892;52.378;13.122;2022-10-18T01:51:45;19.10;76.30
42227;DHT22;27892;52.378;13.122;2022-10-18T01:54:14;19.10;76.30
42227;DHT22;27892;52.378;13.122;2022-10-18T02:07:26;19.20;76.50
42227;DHT22;27892;52.378;13.122;2022-10-18T02:12:36;19.20;76.40
42227;DHT22;27892;52.378;13.122;2022-10-18T02:15:05;19.20;76.90
42227;DHT22;27892;52.378;13.122;2022-10-18T02:17:32;19.20;76.50
42227;DHT22;27892;52.378;13.122;2022-10-18T02:20:02;19.20;76.50
42227;DHT22;27892;52.378;13.122;2022-10-18T02:22:31;19.20;76.60
42227;DHT22;27892;52.378;13.122;2022-10-18T02:24:59;19.30;76.80
42227;DHT22;27892;52.378;13.122;2022-10-18T02:27:26;19.30;76.80
42227;DHT22;27892;52.378;13.122;2022-10-18T02:29:52;19.30;76.70
42227;DHT22;27892;52.378;13.122;2022-10-18T02:32:37;19.30;76.80
42227;DHT22;27892;52.378;13.122;2022-10-18T02:35:31;19.40;77.20
42227;DHT22;27892;52.378;13.122;2022-10-18T02:38:18;19.40;77.10
42227;DHT22;27892;52.378;13.122;2022-10-18T02:41:03;19.40;77.00
42227;DHT22;27892;52.378;13.122;2022-10-18T02:43:47;19.40;77.10
42227;DHT22;27892;52.378;13.122;2022-10-18T02:46:12;19.40;77.10
42227;DHT22;27892;52.378;13.122;2022-10-18T02:48:38;19.40;77.40
42227;DHT22;27892;52.378;13.122;2022-10-18T02:51:03;19.40;77.60
42227;DHT22;27892;52.378;13.122;2022-10-18T02:53:29;19.40;77.70
42227;DHT22;27892;52.378;13.122;2022-10-18T02:55:54;19.50;78.00
42227;DHT22;27892;52.378;13.122;2022-10-18T02:58:20;19.40;78.00
42227;DHT22;27892;52.378;13.122;2022-10-18T03:00:48;19.50;78.40
42227;DHT22;27892;52.378;13.122;2022-10-18T03:03:14;19.50;78.30
42227;DHT22;27892;52.378;13.122;2022-10-18T03:05:40;19.60;78.60
42227;DHT22;27892;52.378;13.122;2022-10-18T03:08:05;19.60;78.80
42227;DHT22;27892;52.378;13.122;2022-10-18T03:10:31;19.60;78.90
42227;DHT22;27892;52.378;13.122;2022-10-18T03:12:56;19.60;79.20
42227;DHT22;27892;52.378;13.122;2022-10-18T03:15:22;19.60;79.40
42227;DHT22;27892;52.378;13.122;2022-10-18T03:17:48;19.60;79.60
42227;DHT22;27892;52.378;13.122;2022-10-18T03:20:13;19.60;79.40
42227;DHT22;27892;52.378;13.122;2022-10-18T03:22:39;19.60;79.40
42227;DHT22;27892;52.378;13.122;2022-10-18T03:25:05;19.60;79.50
42227;DHT22;27892;52.378;13.122;2022-10-18T03:27:30;19.60;79.60
42227;DHT22;27892;52.378;13.122;2022-10-18T03:29:56;19.60;80.20
42227;DHT22;27892;52.378;13.122;2022-10-18T03:32:21;19.70;80.50
42227;DHT22;27892;52.378;13.122;2022-10-18T03:34:47;19.70;80.70
42227;DHT22;27892;52.378;13.122;2022-10-18T03:37:13;19.80;80.80
42227;DHT22;27892;52.378;13.122;2022-10-18T03:39:38;19.80;80.60
42227;DHT22;27892;52.378;13.122;2022-10-18T03:42:04;19.80;80.60
42227;DHT22;27892;52.378;13.122;2022-10-18T03:44:29;19.80;80.60
42227;DHT22;27892;52.378;13.122;2022-10-18T03:46:55;19.80;80.80
42227;DHT22;27892;52.378;13.122;2022-10-18T03:49:20;19.80;80.70
42227;DHT22;27892;52.378;13.122;2022-10-18T03:51:46;19.80;80.80
42227;DHT22;27892;52.378;13.122;2022-10-18T03:54:11;19.80;80.80
42227;DHT22;27892;52.378;13.122;2022-10-18T03:56:37;19.80;80.80
42227;DHT22;27892;52.378;13.122;2022-10-18T03:59:02;19.80;80.80
42227;DHT22;27892;52.378;13.122;2022-10-18T04:01:29;19.80;80.80
42227;DHT22;27892;52.378;13.122;2022-10-18T04:03:55;19.80;81.10
42227;DHT22;27892;52.378;13.122;2022-10-18T04:06:20;19.80;81.00
42227;DHT22;27892;52.378;13.122;2022-10-18T04:08:46;19.80;80.80
42227;DHT22;27892;52.378;13.122;2022-10-18T04:11:11;19.80;80.70
42227;DHT22;27892;52.378;13.122;2022-10-18T04:13:37;19.80;81.00
42227;DHT22;27892;52.378;13.122;2022-10-18T04:16:03;19.70;81.00
42227;DHT22;27892;52.378;13.122;2022-10-18T04:18:28;19.70;81.30
42227;DHT22;27892;52.378;13.122;2022-10-18T04:20:54;19.80;81.40
42227;DHT22;27892;52.378;13.122;2022-10-18T04:23:19;19.70;81.30
42227;DHT22;27892;52.378;13.122;2022-10-18T04:25:45;19.70;81.40
42227;DHT22;27892;52.378;13.122;2022-10-18T04:28:11;19.70;81.30
42227;DHT22;27892;52.378;13.122;2022-10-18T04:30:36;19.70;81.20
42227;DHT22;27892;52.378;13.122;2022-10-18T04:33:02;19.70;81.10
42227;DHT22;27892;52.378;13.122;2022-10-18T04:35:27;19.70;80.90
42227;DHT22;27892;52.378;13.122;2022-10-18T04:37:53;19.70;81.00
42227;DHT22;27892;52.378;13.122;2022-10-18T04:40:19;19.60;81.10
42227;DHT22;27892;52.378;13.122;2022-10-18T04:42:45;19.60;81.40
42227;DHT22;27892;52.378;13.122;2022-10-18T04:45:11;19.60;81.60
42227;DHT22;27892;52.378;13.122;2022-10-18T04:47:37;19.60;81.40
42227;DHT22;27892;52.378;13.122;2022-10-18T04:50:04;19.60;81.50
42227;DHT22;27892;52.378;13.122;2022-10-18T04:52:30;19.70;81.40
42227;DHT22;27892;52.378;13.122;2022-10-18T04:54:55;19.60;81.10
42227;DHT22;27892;52.378;13.122;2022-10-18T04:57:21;19.60;81.30
42227;DHT22;27892;52.378;13.122;2022-10-18T04:59:46;19.60;81.40
42227;DHT22;27892;52.378;13.122;2022-10-18T05:02:12;19.60;81.60
42227;DHT22;27892;52.378;13.122;2022-10-18T05:04:38;19.50;81.90
42227;DHT22;27892;52.378;13.122;2022-10-18T05:07:03;19.50;82.10
42227;DHT22;27892;52.378;13.122;2022-10-18T05:09:31;19.50;81.90
42227;DHT22;27892;52.378;13.122;2022-10-18T05:11:57;19.60;81.90
42227;DHT22;27892;52.378;13.122;2022-10-18T05:14:22;19.60;81.70
42227;DHT22;27892;52.378;13.122;2022-10-18T05:16:48;19.50;81.80
42227;DHT22;27892;52.378;13.122;2022-10-18T05:19:13;19.50;81.80
42227;DHT22;27892;52.378;13.122;2022-10-18T05:21:39;19.50;81.90
42227;DHT22;27892;52.378;13.122;2022-10-18T05:24:05;19.50;81.90
42227;DHT22;27892;52.378;13.122;2022-10-18T05:26:30;19.60;81.90
42227;DHT22;27892;52.378;13.122;2022-10-18T05:28:56;19.50;82.00
42227;DHT22;27892;52.378;13.122;2022-10-18T05:31:22;19.40;81.10
42227;DHT22;27892;52.378;13.122;2022-10-18T05:33:47;19.40;81.70
42227;DHT22;27892;52.378;13.122;2022-10-18T05:36:13;19.40;82.00
42227;DHT22;27892;52.378;13.122;2022-10-18T05:38:39;19.40;81.80
42227;DHT22;27892;52.378;13.122;2022-10-18T05:41:07;19.40;81.90
42227;DHT22;27892;52.378;13.122;2022-10-18T05:43:33;19.40;81.90
42227;DHT22;27892;52.378;13.122;2022-10-18T05:45:58;19.40;81.60
42227;DHT22;27892;52.378;13.122;2022-10-18T05:48:24;19.40;81.90
42227;DHT22;27892;52.378;13.122;2022-10-18T05:50:50;19.40;82.10
42227;DHT22;27892;52.378;13.122;2022-10-18T05:53:15;19.30;82.40
42227;DHT22;27892;52.378;13.122;2022-10-18T05:55:41;19.30;82.50
42227;DHT22;27892;52.378;13.122;2022-10-18T05:58:06;19.40;82.30
42227;DHT22;27892;52.378;13.122;2022-10-18T06:00:32;19.30;82.10
42227;DHT22;27892;52.378;13.122;2022-10-18T06:02:57;19.30;82.00
42227;DHT22;27892;52.378;13.122;2022-10-18T06:05:23;19.30;82.30
42227;DHT22;27892;52.378;13.122;2022-10-18T06:07:51;19.20;82.60
42227;DHT22;27892;52.378;13.122;2022-10-18T06:10:17;19.20;83.30
42227;DHT22;27892;52.378;13.122;2022-10-18T06:12:43;19.30;83.60
42227;DHT22;27892;52.378;13.122;2022-10-18T06:15:08;19.30;83.40
42227;DHT22;27892;52.378;13.122;2022-10-18T06:17:34;19.40;83.30
42227;DHT22;27892;52.378;13.122;2022-10-18T06:20:00;19.40;82.80
42227;DHT22;27892;52.378;13.122;2022-10-18T06:22:25;19.40;82.60
42227;DHT22;27892;52.378;13.122;2022-10-18T06:24:51;19.40;82.70
42227;DHT22;27892;52.378;13.122;2022-10-18T06:27:16;19.40;82.60
42227;DHT22;27892;52.378;13.122;2022-10-18T06:29:42;19.40;82.80
42227;DHT22;27892;52.378;13.122;2022-10-18T06:32:09;19.40;83.20
42227;DHT22;27892;52.378;13.122;2022-10-18T06:34:34;19.40;83.70
42227;DHT22;27892;52.378;13.122;2022-10-18T06:37:00;19.40;83.50
42227;DHT22;27892;52.378;13.122;2022-10-18T06:39:26;19.50;83.60
42227;DHT22;27892;52.378;13.122;2022-10-18T06:41:52;19.50;84.10
42227;DHT22;27892;52.378;13.122;2022-10-18T06:44:19;19.50;83.80
42227;DHT22;27892;52.378;13.122;2022-10-18T06:46:46;19.50;83.80
42227;DHT22;27892;52.378;13.122;2022-10-18T06:49:13;19.60;83.80
42227;DHT22;27892;52.378;13.122;2022-10-18T06:51:39;19.60;83.60
42227;DHT22;27892;52.378;13.122;2022-10-18T06:54:05;19.60;83.50
42227;DHT22;27892;52.378;13.122;2022-10-18T06:56:33;19.60;83.10
42227;DHT22;27892;52.378;13.122;2022-10-18T06:58:58;19.60;83.00
42227;DHT22;27892;52.378;13.122;2022-10-18T07:01:24;19.70;82.90
42227;DHT22;27892;52.378;13.122;2022-10-18T07:03:52;19.70;83.10
42227;DHT22;27892;52.378;13.122;2022-10-18T07:06:18;19.60;83.30
42227;DHT22;27892;52.378;13.122;2022-10-18T07:08:46;19.70;83.50
42227;DHT22;27892;52.378;13.122;2022-10-18T07:11:21;19.70;83.90
42227;DHT22;27892;52.378;13.122;2022-10-18T07:13:48;19.80;84.20
42227;DHT22;27892;52.378;13.122;2022-10-18T07:16:16;19.80;83.90
42227;DHT22;27892;52.378;13.122;2022-10-18T07:18:43;19.80;83.80
42227;DHT22;27892;52.378;13.122;2022-10-18T07:21:11;19.90;83.80
42227;DHT22;27892;52.378;13.122;2022-10-18T07:23:39;19.90;83.90
42227;DHT22;27892;52.378;13.122;2022-10-18T07:26:20;19.90;83.90
42227;DHT22;27892;52.378;13.122;2022-10-18T07:28:49;20.00;84.20
42227;DHT22;27892;52.378;13.122;2022-10-18T07:31:15;20.00;84.80
42227;DHT22;27892;52.378;13.122;2022-10-18T07:33:41;20.00;83.90
42227;DHT22;27892;52.378;13.122;2022-10-18T07:36:10;20.10;83.90
42227;DHT22;27892;52.378;13.122;2022-10-18T07:38:36;20.10;84.00
42227;DHT22;27892;52.378;13.122;2022-10-18T07:41:04;20.00;84.10
42227;DHT22;27892;52.378;13.122;2022-10-18T07:43:34;20.00;84.20
42227;DHT22;27892;52.378;13.122;2022-10-18T07:46:02;20.00;84.50
42227;DHT22;27892;52.378;13.122;2022-10-18T07:48:28;20.00;84.50
42227;DHT22;27892;52.378;13.122;2022-10-18T07:50:56;20.10;84.50
42227;DHT22;27892;52.378;13.122;2022-10-18T07:53:22;20.20;84.70
42227;DHT22;27892;52.378;13.122;2022-10-18T07:55:47;20.20;84.50
42227;DHT22;27892;52.378;13.122;2022-10-18T07:58:13;20.20;84.50
42227;DHT22;27892;52.378;13.122;2022-10-18T08:00:38;20.20;84.50
42227;DHT22;27892;52.378;13.122;2022-10-18T08:03:05;20.20;84.40
42227;DHT22;27892;52.378;13.122;2022-10-18T08:05:30;20.20;84.20
42227;DHT22;27892;52.378;13.122;2022-10-18T08:07:57;20.20;84.10
42227;DHT22;27892;52.378;13.122;2022-10-18T08:10:23;20.20;83.80
42227;DHT22;27892;52.378;13.122;2022-10-18T08:12:49;20.10;84.10
42227;DHT22;27892;52.378;13.122;2022-10-18T08:15:15;20.10;84.60
42227;DHT22;27892;52.378;13.122;2022-10-18T08:17:40;20.10;84.80
42227;DHT22;27892;52.378;13.122;2022-10-18T08:20:08;20.10;84.70
42227;DHT22;27892;52.378;13.122;2022-10-18T08:22:34;20.20;84.80
42227;DHT22;27892;52.378;13.122;2022-10-18T08:24:59;20.20;84.50
42227;DHT22;27892;52.378;13.122;2022-10-18T08:27:25;20.20;84.50
42227;DHT22;27892;52.378;13.122;2022-10-18T08:29:51;20.20;84.60
42227;DHT22;27892;52.378;13.122;2022-10-18T08:32:17;20.20;84.60
42227;DHT22;27892;52.378;13.122;2022-10-18T08:34:42;20.20;84.10
42227;DHT22;27892;52.378;13.122;2022-10-18T08:37:08;20.20;84.00
42227;DHT22;27892;52.378;13.122;2022-10-18T08:39:34;20.30;84.20
42227;DHT22;27892;52.378;13.122;2022-10-18T08:44:52;20.20;84.00
42227;DHT22;27892;52.378;13.122;2022-10-18T08:47:30;20.20;83.80
42227;DHT22;27892;52.378;13.122;2022-10-18T08:50:04;20.20;84.00
42227;DHT22;27892;52.378;13.122;2022-10-18T08:58:20;20.10;84.30
42227;DHT22;27892;52.378;13.122;2022-10-18T09:03:47;20.10;85.10
42227;DHT22;27892;52.378;13.122;2022-10-18T09:06:42;20.20;84.80
42227;DHT22;27892;52.378;13.122;2022-10-18T09:12:02;20.20;84.80
42227;DHT22;27892;52.378;13.122;2022-10-18T09:14:43;20.20;84.70
42227;DHT22;27892;52.378;13.122;2022-10-18T09:17:27;20.20;84.70
42227;DHT22;27892;52.378;13.122;2022-10-18T09:20:17;20.20;85.00
42227;DHT22;27892;52.378;13.122;2022-10-18T09:23:15;20.20;85.30
42227;DHT22;27892;52.378;13.122;2022-10-18T09:25:46;20.20;85.30
42227;DHT22;27892;52.378;13.122;2022-10-18T09:30:44;20.30;85.50
42227;DHT22;27892;52.378;13.122;2022-10-18T09:33:34;20.30;85.50
42227;DHT22;27892;52.378;13.122;2022-10-18T09:36:19;20.30;85.70
42227;DHT22;27892;52.378;13.122;2022-10-18T09:38:50;20.30;85.90
42227;DHT22;27892;52.378;13.122;2022-10-18T09:41:23;20.30;85.50
42227;DHT22;27892;52.378;13.122;2022-10-18T09:46:38;20.20;85.60
42227;DHT22;27892;52.378;13.122;2022-10-18T09:49:11;20.20;85.50
42227;DHT22;27892;52.378;13.122;2022-10-18T09:51:40;20.20;85.90
42227;DHT22;27892;52.378;13.122;2022-10-18T09:57:20;20.20;86.10
42227;DHT22;27892;52.378;13.122;2022-10-18T09:59:45;20.20;86.00
42227;DHT22;27892;52.378;13.122;2022-10-18T10:02:17;20.20;85.80
42227;DHT22;27892;52.378;13.122;2022-10-18T10:04:44;20.20;85.60
42227;DHT22;27892;52.378;13.122;2022-10-18T10:07:21;20.20;85.70
42227;DHT22;27892;52.378;13.122;2022-10-18T10:10:03;20.20;85.90
42227;DHT22;27892;52.378;13.122;2022-10-18T10:12:33;20.30;85.90
42227;DHT22;27892;52.378;13.122;2022-10-18T10:15:19;20.20;85.40
42227;DHT22;27892;52.378;13.122;2022-10-18T10:18:04;20.20;85.70
42227;DHT22;27892;52.378;13.122;2022-10-18T10:20:41;20.10;85.80
42227;DHT22;27892;52.378;13.122;2022-10-18T10:23:15;20.10;85.50
42227;DHT22;27892;52.378;13.122;2022-10-18T10:26:00;20.10;86.00
42227;DHT22;27892;52.378;13.122;2022-10-18T10:28:33;20.10;86.20
42227;DHT22;27892;52.378;13.122;2022-10-18T10:34:17;20.10;86.30
42227;DHT22;27892;52.378;13.122;2022-10-18T10:36:49;20.10;86.50
42227;DHT22;27892;52.378;13.122;2022-10-18T10:39:17;20.20;86.50
42227;DHT22;27892;52.378;13.122;2022-10-18T10:41:48;20.20;86.20
42227;DHT22;27892;52.378;13.122;2022-10-18T10:44:17;20.20;85.60
42227;DHT22;27892;52.378;13.122;2022-10-18T10:46:43;20.20;85.50
42227;DHT22;27892;52.378;13.122;2022-10-18T10:51:42;20.30;86.20
42227;DHT22;27892;52.378;13.122;2022-10-18T10:54:17;20.30;85.50
42227;DHT22;27892;52.378;13.122;2022-10-18T10:57:02;20.30;85.40
42227;DHT22;27892;52.378;13.122;2022-10-18T10:59:42;20.30;85.00
42227;DHT22;27892;52.378;13.122;2022-10-18T11:04:40;20.30;85.30
42227;DHT22;27892;52.378;13.122;2022-10-18T11:13:00;20.50;85.90
42227;DHT22;27892;52.378;13.122;2022-10-18T11:15:50;20.50;85.80
42227;DHT22;27892;52.378;13.122;2022-10-18T11:18:21;20.40;85.60
42227;DHT22;27892;52.378;13.122;2022-10-18T11:23:31;20.40;85.90
42227;DHT22;27892;52.378;13.122;2022-10-18T11:26:17;20.40;85.80
42227;DHT22;27892;52.378;13.122;2022-10-18T11:29:21;20.50;85.30
42227;DHT22;27892;52.378;13.122;2022-10-18T11:32:04;20.60;85.60
42227;DHT22;27892;52.378;13.122;2022-10-18T11:34:54;20.70;86.40
42227;DHT22;27892;52.378;13.122;2022-10-18T11:37:42;20.70;85.50
42227;DHT22;27892;52.378;13.122;2022-10-18T11:43:10;20.80;85.50
42227;DHT22;27892;52.378;13.122;2022-10-18T11:45:40;20.80;85.30
42227;DHT22;27892;52.378;13.122;2022-10-18T11:54:11;20.70;85.00
42227;DHT22;27892;52.378;13.122;2022-10-18T11:56:47;20.80;85.50
42227;DHT22;27892;52.378;13.122;2022-10-18T11:59:36;20.80;84.80
42227;DHT22;27892;52.378;13.122;2022-10-18T12:05:06;20.80;85.10
42227;DHT22;27892;52.378;13.122;2022-10-18T12:07:37;20.80;84.80
42227;DHT22;27892;52.378;13.122;2022-10-18T12:10:06;20.80;85.20
42227;DHT22;27892;52.378;13.122;2022-10-18T12:13:00;20.80;85.20
42227;DHT22;27892;52.378;13.122;2022-10-18T12:15:28;20.80;85.10
42227;DHT22;27892;52.378;13.122;2022-10-18T12:17:58;20.80;84.40
42227;DHT22;27892;52.378;13.122;2022-10-18T12:20:55;20.80;84.60
42227;DHT22;27892;52.378;13.122;2022-10-18T12:23:35;20.80;84.60
42227;DHT22;27892;52.378;13.122;2022-10-18T12:26:05;20.90;85.00
42227;DHT22;27892;52.378;13.122;2022-10-18T12:28:46;20.90;85.30
42227;DHT22;27892;52.378;13.122;2022-10-18T12:31:30;20.90;84.50
42227;DHT22;27892;52.378;13.122;2022-10-18T12:34:11;20.90;84.10
42227;DHT22;27892;52.378;13.122;2022-10-18T12:39:29;20.90;84.30
42227;DHT22;27892;52.378;13.122;2022-10-18T12:41:57;20.90;84.40
42227;DHT22;27892;52.378;13.122;2022-10-18T12:44:32;20.80;83.40
42227;DHT22;27892;52.378;13.122;2022-10-18T12:47:01;20.90;83.60
42227;DHT22;27892;52.378;13.122;2022-10-18T12:49:33;20.90;84.20
42227;DHT22;27892;52.378;13.122;2022-10-18T12:52:23;20.90;83.90
42227;DHT22;27892;52.378;13.122;2022-10-18T13:21:51;21.00;84.00
42227;DHT22;27892;52.378;13.122;2022-10-18T13:24:23;21.00;83.90
42227;DHT22;27892;52.378;13.122;2022-10-18T13:32:43;21.10;84.30
42227;DHT22;27892;52.378;13.122;2022-10-18T13:38:46;21.40;85.50
42227;DHT22;27892;52.378;13.122;2022-10-18T13:44:35;21.90;86.10
42227;DHT22;27892;52.378;13.122;2022-10-18T13:52:30;22.50;79.60
42227;DHT22;27892;52.378;13.122;2022-10-18T13:55:13;22.40;79.50
42227;DHT22;27892;52.378;13.122;2022-10-18T14:06:00;21.90;79.30
42227;DHT22;27892;52.378;13.122;2022-10-18T14:13:35;22.10;78.20
42227;DHT22;27892;52.378;13.122;2022-10-18T14:18:44;21.80;77.60
42227;DHT22;27892;52.378;13.122;2022-10-18T14:21:19;21.70;76.50
42227;DHT22;27892;52.378;13.122;2022-10-18T14:23:47;21.60;77.40
42227;DHT22;27892;52.378;13.122;2022-10-18T14:26:16;21.50;77.40
42227;DHT22;27892;52.378;13.122;2022-10-18T14:28:43;21.40;77.70
42227;DHT22;27892;52.378;13.122;2022-10-18T14:31:13;21.30;78.20
42227;DHT22;27892;52.378;13.122;2022-10-18T14:33:50;21.20;78.60
42227;DHT22;27892;52.378;13.122;2022-10-18T14:39:02;21.10;78.80
42227;DHT22;27892;52.378;13.122;2022-10-18T14:49:10;20.70;78.40
42227;DHT22;27892;52.378;13.122;2022-10-18T14:51:39;20.50;78.70
42227;DHT22;27892;52.378;13.122;2022-10-18T14:54:16;20.40;78.70
42227;DHT22;27892;52.378;13.122;2022-10-18T14:56:43;20.40;78.70
42227;DHT22;27892;52.378;13.122;2022-10-18T14:59:18;20.20;78.60
42227;DHT22;27892;52.378;13.122;2022-10-18T15:01:58;20.10;79.00
42227;DHT22;27892;52.378;13.122;2022-10-18T15:04:25;20.10;79.30
42227;DHT22;27892;52.378;13.122;2022-10-18T15:06:59;20.10;79.00
42227;DHT22;27892;52.378;13.122;2022-10-18T15:09:25;20.00;79.30
42227;DHT22;27892;52.378;13.122;2022-10-18T15:11:51;20.00;79.50
42227;DHT22;27892;52.378;13.122;2022-10-18T15:14:20;19.90;79.60
42227;DHT22;27892;52.378;13.122;2022-10-18T15:16:47;19.90;79.70
42227;DHT22;27892;52.378;13.122;2022-10-18T15:22:01;19.80;80.10
42227;DHT22;27892;52.378;13.122;2022-10-18T15:24:30;19.70;80.20
42227;DHT22;27892;52.378;13.122;2022-10-18T15:26:59;19.70;80.30
42227;DHT22;27892;52.378;13.122;2022-10-18T15:29:26;19.70;80.60
42227;DHT22;27892;52.378;13.122;2022-10-18T15:32:10;19.60;80.30
42227;DHT22;27892;52.378;13.122;2022-10-18T15:34:36;19.60;80.60
42227;DHT22;27892;52.378;13.122;2022-10-18T15:37:18;19.50;80.30
42227;DHT22;27892;52.378;13.122;2022-10-18T15:40:14;19.40;80.60
42227;DHT22;27892;52.378;13.122;2022-10-18T15:42:40;19.30;80.50
42227;DHT22;27892;52.378;13.122;2022-10-18T15:50:50;19.10;81.20
42227;DHT22;27892;52.378;13.122;2022-10-18T15:58:53;18.90;80.90
42227;DHT22;27892;52.378;13.122;2022-10-18T16:03:59;18.80;81.10
42227;DHT22;27892;52.378;13.122;2022-10-18T16:06:25;18.70;80.90
42227;DHT22;27892;52.378;13.122;2022-10-18T16:08:52;18.60;80.80
42227;DHT22;27892;52.378;13.122;2022-10-18T16:11:20;18.60;80.90
42227;DHT22;27892;52.378;13.122;2022-10-18T16:13:46;18.50;80.80
42227;DHT22;27892;52.378;13.122;2022-10-18T16:16:18;18.40;80.90
42227;DHT22;27892;52.378;13.122;2022-10-18T16:18:44;18.30;80.80
42227;DHT22;27892;52.378;13.122;2022-10-18T16:21:19;18.20;80.90
42227;DHT22;27892;52.378;13.122;2022-10-18T16:23:46;18.20;81.10
42227;DHT22;27892;52.378;13.122;2022-10-18T16:26:12;18.10;80.60
42227;DHT22;27892;52.378;13.122;2022-10-18T16:28:38;18.00;80.50
42227;DHT22;27892;52.378;13.122;2022-10-18T16:31:04;18.00;80.60
42227;DHT22;27892;52.378;13.122;2022-10-18T16:33:30;17.90;80.70
42227;DHT22;27892;52.378;13.122;2022-10-18T16:35:56;17.80;80.80
42227;DHT22;27892;52.378;13.122;2022-10-18T16:38:33;17.80;80.60
42227;DHT22;27892;52.378;13.122;2022-10-18T16:41:02;17.70;80.40
42227;DHT22;27892;52.378;13.122;2022-10-18T16:43:28;17.60;80.40
42227;DHT22;27892;52.378;13.122;2022-10-18T16:45:54;17.60;80.20
42227;DHT22;27892;52.378;13.122;2022-10-18T16:48:23;17.50;80.20
42227;DHT22;27892;52.378;13.122;2022-10-18T16:50:50;17.40;80.10
42227;DHT22;27892;52.378;13.122;2022-10-18T16:53:17;17.30;80.30
42227;DHT22;27892;52.378;13.122;2022-10-18T16:55:44;17.20;80.30
42227;DHT22;27892;52.378;13.122;2022-10-18T16:58:15;17.10;80.10
42227;DHT22;27892;52.378;13.122;2022-10-18T17:00:42;17.10;80.60
42227;DHT22;27892;52.378;13.122;2022-10-18T17:03:08;17.00;80.10
42227;DHT22;27892;52.378;13.122;2022-10-18T17:05:33;16.90;80.00
42227;DHT22;27892;52.378;13.122;2022-10-18T17:07:59;16.90;79.90
42227;DHT22;27892;52.378;13.122;2022-10-18T17:10:25;16.80;79.90
42227;DHT22;27892;52.378;13.122;2022-10-18T17:12:52;16.70;80.00
42227;DHT22;27892;52.378;13.122;2022-10-18T17:15:18;16.70;80.10
42227;DHT22;27892;52.378;13.122;2022-10-18T17:17:43;16.70;80.00
42227;DHT22;27892;52.378;13.122;2022-10-18T17:20:20;16.60;79.60
42227;DHT22;27892;52.378;13.122;2022-10-18T17:22:47;16.60;79.50
42227;DHT22;27892;52.378;13.122;2022-10-18T17:25:13;16.50;79.50
42227;DHT22;27892;52.378;13.122;2022-10-18T17:27:38;16.50;79.20
42227;DHT22;27892;52.378;13.122;2022-10-18T17:30:04;16.40;79.10
42227;DHT22;27892;52.378;13.122;2022-10-18T17:32:30;16.40;79.40
42227;DHT22;27892;52.378;13.122;2022-10-18T17:34:56;16.30;79.30
42227;DHT22;27892;52.378;13.122;2022-10-18T17:37:21;16.30;79.20
42227;DHT22;27892;52.378;13.122;2022-10-18T17:39:47;16.20;79.10
42227;DHT22;27892;52.378;13.122;2022-10-18T17:42:13;16.20;79.90
42227;DHT22;27892;52.378;13.122;2022-10-18T17:44:38;16.00;78.90
42227;DHT22;27892;52.378;13.122;2022-10-18T17:47:04;16.10;80.20
42227;DHT22;27892;52.378;13.122;2022-10-18T17:49:30;16.00;79.10
42227;DHT22;27892;52.378;13.122;2022-10-18T17:51:55;16.00;79.10
42227;DHT22;27892;52.378;13.122;2022-10-18T17:54:21;15.90;79.00
42227;DHT22;27892;52.378;13.122;2022-10-18T17:56:46;15.90;79.00
42227;DHT22;27892;52.378;13.122;2022-10-18T17:59:12;15.90;79.40
42227;DHT22;27892;52.378;13.122;2022-10-18T18:01:38;15.80;79.30
42227;DHT22;27892;52.378;13.122;2022-10-18T18:04:03;15.80;79.10
42227;DHT22;27892;52.378;13.122;2022-10-18T18:06:35;15.70;79.00
42227;DHT22;27892;52.378;13.122;2022-10-18T18:09:06;15.70;79.30
42227;DHT22;27892;52.378;13.122;2022-10-18T18:11:34;15.70;79.30
42227;DHT22;27892;52.378;13.122;2022-10-18T18:14:00;15.70;79.10
42227;DHT22;27892;52.378;13.122;2022-10-18T18:16:28;15.60;78.70
42227;DHT22;27892;52.378;13.122;2022-10-18T18:18:57;15.60;78.60
42227;DHT22;27892;52.378;13.122;2022-10-18T18:21:24;15.60;78.60
42227;DHT22;27892;52.378;13.122;2022-10-18T18:23:50;15.60;78.30
42227;DHT22;27892;52.378;13.122;2022-10-18T18:26:16;15.50;78.30
42227;DHT22;27892;52.378;13.122;2022-10-18T18:28:42;15.50;78.10
42227;DHT22;27892;52.378;13.122;2022-10-18T18:31:12;15.50;78.10
42227;DHT22;27892;52.378;13.122;2022-10-18T18:33:38;15.40;78.10
42227;DHT22;27892;52.378;13.122;2022-10-18T18:36:04;15.40;78.10
42227;DHT22;27892;52.378;13.122;2022-10-18T18:38:32;15.30;78.00